createdAt,value
2022-07-30T00:02:05.640Z,99.90
2022-07-30T00:04:32.614Z,99.90
2022-07-30T00:07:00.306Z,99.90
2022-07-30T00:09:27.216Z,99.90
2022-07-30T00:11:53.903Z,99.90
2022-07-30T00:14:20.753Z,99.90
2022-07-30T00:16:47.504Z,99.90
2022-07-30T00:19:14.891Z,99.90
2022-07-30T00:21:42.232Z,99.90
2022-07-30T00:24:10.239Z,99.90
2022-07-30T00:26:37.234Z,99.90
2022-07-30T00:29:05.043Z,99.90
2022-07-30T00:31:32.194Z,99.90
2022-07-30T00:33:58.954Z,99.90
2022-07-30T00:36:25.954Z,99.90
2022-07-30T00:38:52.656Z,99.90
2022-07-30T00:41:19.311Z,99.90
2022-07-30T00:43:46.039Z,99.90
2022-07-30T00:46:14.754Z,99.90
2022-07-30T00:48:42.585Z,99.90
2022-07-30T00:51:09.666Z,99.90
2022-07-30T00:53:37.012Z,99.90
2022-07-30T00:56:04.510Z,99.90
2022-07-30T00:58:31.424Z,99.90
2022-07-30T01:00:58.204Z,99.90
2022-07-30T01:03:24.982Z,99.90
2022-07-30T01:05:51.738Z,99.90
2022-07-30T01:08:18.470Z,99.90
2022-07-30T01:10:45.158Z,99.90
2022-07-30T01:13:12.747Z,99.90
2022-07-30T01:15:39.510Z,99.90
2022-07-30T01:18:10.022Z,99.90
2022-07-30T01:20:38.206Z,99.90
2022-07-30T01:23:14.607Z,99.90
2022-07-30T01:26:01.969Z,99.90
2022-07-30T01:28:35.582Z,99.90
2022-07-30T01:31:04.230Z,99.90
2022-07-30T01:33:32.526Z,99.90
2022-07-30T01:36:00.653Z,99.90
2022-07-30T01:38:31.167Z,99.90
2022-07-30T01:41:03.665Z,99.90
2022-07-30T01:43:32.943Z,99.90
2022-07-30T01:46:02.108Z,99.90
2022-07-30T01:48:29.742Z,99.90
2022-07-30T01:51:00.490Z,99.90
2022-07-30T01:53:31.381Z,99.90
2022-07-30T01:56:00.217Z,99.90
2022-07-30T01:58:31.693Z,99.90
2022-07-30T02:00:59.018Z,99.90
2022-07-30T02:03:27.025Z,99.90
2022-07-30T02:06:17.690Z,99.90
2022-07-30T02:09:10.587Z,99.90
2022-07-30T02:12:03.093Z,99.90
2022-07-30T02:14:49.357Z,99.90
2022-07-30T02:17:22.295Z,99.90
2022-07-30T02:19:57.787Z,99.90
2022-07-30T02:22:28.771Z,99.90
2022-07-30T02:24:58.506Z,99.90
2022-07-30T02:27:28.829Z,99.90
2022-07-30T02:29:59.424Z,99.90
2022-07-30T02:32:30.610Z,99.90
2022-07-30T02:35:00.519Z,99.90
2022-07-30T02:37:41.482Z,99.90
2022-07-30T02:40:14.192Z,99.90
2022-07-30T02:42:42.799Z,99.90
2022-07-30T02:45:11.337Z,99.90
2022-07-30T02:47:39.665Z,99.90
2022-07-30T02:50:08.964Z,99.90
2022-07-30T02:52:37.827Z,99.90
2022-07-30T02:55:06.021Z,99.90
2022-07-30T02:57:33.999Z,99.90
2022-07-30T03:00:02.440Z,99.90
2022-07-30T03:02:31.468Z,99.90
2022-07-30T03:05:00.050Z,99.90
2022-07-30T03:07:28.725Z,99.90
2022-07-30T03:09:56.946Z,99.90
2022-07-30T03:12:24.696Z,99.90
2022-07-30T03:14:51.828Z,99.90
2022-07-30T03:17:20.402Z,99.90
2022-07-30T03:19:49.442Z,99.90
2022-07-30T03:22:18.218Z,99.90
2022-07-30T03:24:47.165Z,99.90
2022-07-30T03:27:16.088Z,99.90
2022-07-30T03:29:45.831Z,99.90
2022-07-30T03:32:13.878Z,99.90
2022-07-30T03:34:42.547Z,99.90
2022-07-30T03:37:11.275Z,99.90
2022-07-30T03:39:38.963Z,99.90
2022-07-30T03:42:07.871Z,99.90
2022-07-30T03:44:35.241Z,99.90
2022-07-30T03:47:05.065Z,99.90
2022-07-30T03:49:32.915Z,99.90
2022-07-30T03:52:01.116Z,99.90
2022-07-30T03:54:28.159Z,99.90
2022-07-30T03:56:55.017Z,99.90
2022-07-30T03:59:21.831Z,99.90
2022-07-30T04:01:48.633Z,99.90
2022-07-30T04:04:15.345Z,99.90
2022-07-30T04:06:43.031Z,99.90
2022-07-30T04:09:11.946Z,99.90
2022-07-30T04:11:41.597Z,99.90
2022-07-30T04:14:09.115Z,99.90
2022-07-30T04:16:54.789Z,99.90
2022-07-30T04:19:44.431Z,99.90
2022-07-30T04:22:12.928Z,99.90
2022-07-30T04:24:40.951Z,99.90
2022-07-30T04:27:07.910Z,99.90
2022-07-30T04:29:34.938Z,99.90
2022-07-30T04:32:01.826Z,99.90
2022-07-30T04:34:28.567Z,99.90
2022-07-30T04:36:55.272Z,99.90
2022-07-30T04:39:21.967Z,99.90
2022-07-30T04:41:50.197Z,99.90
2022-07-30T04:44:20.312Z,99.90
2022-07-30T04:46:47.826Z,99.90
2022-07-30T04:49:17.459Z,99.90
2022-07-30T04:51:45.415Z,99.90
2022-07-30T04:54:15.240Z,99.90
2022-07-30T04:56:53.377Z,99.90
2022-07-30T04:59:24.770Z,99.90
2022-07-30T05:01:52.526Z,99.90
2022-07-30T05:04:22.342Z,99.90
2022-07-30T05:06:49.688Z,99.90
2022-07-30T05:09:17.060Z,99.90
2022-07-30T05:11:51.482Z,99.90
2022-07-30T05:14:18.158Z,99.90
2022-07-30T05:16:44.826Z,99.90
2022-07-30T05:19:11.946Z,99.90
2022-07-30T05:21:38.639Z,99.90
2022-07-30T05:24:05.661Z,99.90
2022-07-30T05:26:32.484Z,99.90
2022-07-30T05:28:59.168Z,99.90
2022-07-30T05:31:26.096Z,99.90
2022-07-30T05:34:00.170Z,99.90
2022-07-30T05:36:29.335Z,99.90
2022-07-30T05:38:55.998Z,99.90
2022-07-30T05:41:32.272Z,99.90
2022-07-30T05:44:00.164Z,99.90
2022-07-30T05:46:27.259Z,99.90
2022-07-30T05:48:54.160Z,99.90
2022-07-30T05:51:22.149Z,99.90
2022-07-30T05:53:49.239Z,99.90
2022-07-30T05:56:16.022Z,99.90
2022-07-30T05:58:43.160Z,99.90
2022-07-30T06:01:09.897Z,99.90
2022-07-30T06:03:36.647Z,99.90
2022-07-30T06:06:04.957Z,99.90
2022-07-30T06:08:31.947Z,99.90
2022-07-30T06:10:58.717Z,99.90
2022-07-30T06:13:25.622Z,99.90
2022-07-30T06:15:52.445Z,99.90
2022-07-30T06:18:19.202Z,99.90
2022-07-30T06:20:51.790Z,99.90
2022-07-30T06:23:18.887Z,99.90
2022-07-30T06:25:45.569Z,99.90
2022-07-30T06:28:35.243Z,99.90
2022-07-30T06:30:59.261Z,99.90
2022-07-30T06:33:26.043Z,99.90
2022-07-30T06:35:52.742Z,99.90
2022-07-30T06:38:19.446Z,99.90
2022-07-30T06:40:46.101Z,99.90
2022-07-30T06:43:13.001Z,99.90
2022-07-30T06:45:40.065Z,99.90
2022-07-30T06:48:06.906Z,99.90
2022-07-30T06:50:35.425Z,99.90
2022-07-30T06:53:02.089Z,99.90
2022-07-30T06:55:28.756Z,99.90
2022-07-30T06:57:55.436Z,99.90
2022-07-30T07:00:22.105Z,99.90
2022-07-30T07:02:48.764Z,99.90
2022-07-30T07:05:15.570Z,99.90
2022-07-30T07:07:49.098Z,99.90
2022-07-30T07:10:24.896Z,98.70
2022-07-30T07:12:51.617Z,99.70
2022-07-30T07:15:18.326Z,97.30
2022-07-30T07:17:45.067Z,97.00
2022-07-30T07:20:11.850Z,96.90
2022-07-30T07:22:38.691Z,98.10
2022-07-30T07:25:06.034Z,97.90
2022-07-30T07:27:32.842Z,97.40
2022-07-30T07:30:04.841Z,98.20
2022-07-30T07:32:33.527Z,97.80
2022-07-30T07:35:00.218Z,96.70
2022-07-30T07:37:27.110Z,99.00
2022-07-30T07:39:53.896Z,99.80
2022-07-30T07:42:20.665Z,99.90
2022-07-30T07:44:47.359Z,99.40
2022-07-30T07:47:14.207Z,99.90
2022-07-30T07:49:40.940Z,99.90
2022-07-30T07:52:07.630Z,99.90
2022-07-30T07:54:34.324Z,99.90
2022-07-30T07:57:03.193Z,99.90
2022-07-30T07:59:40.188Z,99.90
2022-07-30T08:02:08.392Z,99.90
2022-07-30T08:04:35.664Z,99.90
2022-07-30T08:07:03.381Z,99.90
2022-07-30T08:09:42.028Z,99.90
2022-07-30T08:12:12.185Z,99.90
2022-07-30T08:14:39.088Z,99.90
2022-07-30T08:17:06.367Z,99.90
2022-07-30T08:19:33.989Z,99.90
2022-07-30T08:22:00.712Z,99.90
2022-07-30T08:24:27.374Z,99.90
2022-07-30T08:26:54.124Z,99.90
2022-07-30T08:29:21.107Z,99.90
2022-07-30T08:31:47.787Z,99.90
2022-07-30T08:34:14.647Z,99.90
2022-07-30T08:36:41.810Z,99.90
2022-07-30T08:39:08.883Z,99.90
2022-07-30T08:41:38.829Z,99.90
2022-07-30T08:44:12.674Z,99.90
2022-07-30T08:46:47.374Z,99.80
2022-07-30T08:49:14.842Z,99.90
2022-07-30T08:51:42.093Z,99.90
2022-07-30T08:54:09.430Z,99.90
2022-07-30T08:56:36.938Z,98.60
2022-07-30T08:59:04.005Z,97.90
2022-07-30T09:01:30.730Z,98.00
2022-07-30T09:03:57.600Z,97.70
2022-07-30T09:06:24.449Z,96.80
2022-07-30T09:08:51.114Z,98.10
2022-07-30T09:11:17.786Z,98.50
2022-07-30T09:13:44.746Z,98.60
2022-07-30T09:16:24.902Z,95.90
2022-07-30T09:18:53.110Z,98.10
2022-07-30T09:21:28.537Z,99.20
2022-07-30T09:24:01.107Z,98.10
2022-07-30T09:26:29.421Z,96.70
2022-07-30T09:29:16.804Z,96.80
2022-07-30T09:32:07.323Z,95.70
2022-07-30T09:34:39.362Z,93.20
2022-07-30T09:37:18.420Z,95.50
2022-07-30T09:39:59.493Z,95.10
2022-07-30T09:42:28.862Z,95.90
2022-07-30T09:45:13.813Z,92.20
2022-07-30T09:47:45.115Z,93.00
2022-07-30T09:53:09.243Z,95.10
2022-07-30T09:58:27.448Z,92.20
2022-07-30T10:00:59.614Z,90.40
2022-07-30T10:03:33.965Z,91.60
2022-07-30T10:06:05.239Z,88.50
2022-07-30T10:08:39.713Z,88.40
2022-07-30T10:11:09.586Z,90.10
2022-07-30T10:13:39.271Z,92.50
2022-07-30T10:16:07.181Z,89.20
2022-07-30T10:18:35.818Z,88.60
2022-07-30T10:21:05.314Z,80.90
2022-07-30T10:23:35.514Z,86.40
2022-07-30T10:26:04.121Z,79.20
2022-07-30T10:28:34.627Z,80.30
2022-07-30T10:31:46.337Z,76.30
2022-07-30T10:33:52.658Z,73.30
2022-07-30T10:36:21.905Z,75.20
2022-07-30T10:38:52.650Z,77.00
2022-07-30T10:41:42.523Z,77.00
2022-07-30T10:44:26.397Z,68.80
2022-07-30T10:47:09.276Z,67.60
2022-07-30T10:49:41.122Z,72.30
2022-07-30T10:52:09.855Z,68.90
2022-07-30T10:54:39.483Z,68.80
2022-07-30T10:57:32.234Z,68.50
2022-07-30T11:00:00.042Z,71.00
2022-07-30T11:02:29.328Z,68.10
2022-07-30T11:05:44.066Z,66.60
2022-07-30T11:08:31.924Z,66.00
2022-07-30T11:11:21.115Z,62.30
2022-07-30T11:14:07.873Z,63.00
2022-07-30T11:16:34.791Z,60.60
2022-07-30T11:19:55.160Z,61.90
2022-07-30T11:22:27.053Z,59.70
2022-07-30T11:24:54.901Z,59.50
2022-07-30T11:27:46.466Z,57.20
2022-07-30T11:30:18.775Z,57.00
2022-07-30T11:33:03.905Z,57.30
2022-07-30T11:35:32.233Z,58.10
2022-07-30T11:38:15.689Z,58.30
2022-07-30T11:40:45.852Z,58.50
2022-07-30T11:43:35.578Z,55.50
2022-07-30T11:46:28.637Z,59.30
2022-07-30T11:48:59.850Z,58.80
2022-07-30T11:51:27.218Z,59.30
2022-07-30T11:54:04.073Z,58.80
2022-07-30T11:56:31.539Z,58.40
2022-07-30T11:59:03.673Z,57.60
2022-07-30T12:01:31.411Z,56.80
2022-07-30T12:03:58.082Z,57.10
2022-07-30T12:06:24.833Z,56.70
2022-07-30T12:08:58.226Z,55.90
2022-07-30T12:11:31.517Z,54.70
2022-07-30T12:14:00.133Z,56.60
2022-07-30T12:16:28.046Z,55.00
2022-07-30T12:18:55.346Z,53.60
2022-07-30T12:21:24.876Z,53.80
2022-07-30T12:23:55.680Z,53.30
2022-07-30T12:26:26.894Z,56.10
2022-07-30T12:28:55.086Z,56.90
2022-07-30T12:31:21.861Z,54.90
2022-07-30T12:33:48.563Z,55.40
2022-07-30T12:36:26.442Z,56.00
2022-07-30T12:38:54.536Z,54.00
2022-07-30T12:41:22.467Z,53.50
2022-07-30T12:43:56.258Z,55.80
2022-07-30T12:46:26.623Z,55.00
2022-07-30T12:48:57.895Z,53.90
2022-07-30T12:51:28.945Z,53.40
2022-07-30T12:53:57.128Z,51.80
2022-07-30T12:56:28.873Z,51.30
2022-07-30T12:58:58.170Z,52.80
2022-07-30T13:01:47.164Z,53.70
2022-07-30T13:04:14.485Z,52.20
2022-07-30T13:06:42.029Z,53.60
2022-07-30T13:09:21.603Z,52.70
2022-07-30T13:11:49.718Z,52.40
2022-07-30T13:14:17.354Z,50.50
2022-07-30T13:16:44.302Z,50.60
2022-07-30T13:19:12.091Z,49.70
2022-07-30T13:21:40.387Z,51.20
2022-07-30T13:24:17.935Z,49.50
2022-07-30T13:26:45.294Z,50.90
2022-07-30T13:29:13.450Z,49.80
2022-07-30T13:31:42.432Z,50.90
2022-07-30T13:34:10.751Z,50.70
2022-07-30T13:36:37.546Z,50.60
2022-07-30T13:39:04.357Z,50.70
2022-07-30T13:41:31.256Z,47.80
2022-07-30T13:43:57.947Z,49.20
2022-07-30T13:46:24.710Z,50.50
2022-07-30T13:48:51.516Z,51.10
2022-07-30T13:51:18.678Z,50.40
2022-07-30T13:53:45.502Z,50.70
2022-07-30T13:56:12.469Z,49.30
2022-07-30T13:58:40.153Z,50.90
2022-07-30T14:01:07.376Z,49.40
2022-07-30T14:03:35.239Z,50.90
2022-07-30T14:06:10.801Z,48.80
2022-07-30T14:08:39.967Z,49.90
2022-07-30T14:11:06.645Z,49.30
2022-07-30T14:13:33.350Z,49.80
2022-07-30T14:16:00.027Z,47.70
2022-07-30T14:18:26.785Z,47.70
2022-07-30T14:20:53.735Z,47.60
2022-07-30T14:23:20.689Z,48.80
2022-07-30T14:25:47.544Z,48.40
2022-07-30T14:28:14.998Z,48.40
2022-07-30T14:30:42.359Z,47.40
2022-07-30T14:33:09.428Z,48.20
2022-07-30T14:35:36.257Z,46.80
2022-07-30T14:38:03.538Z,47.60
2022-07-30T14:40:30.360Z,48.20
2022-07-30T14:42:57.926Z,47.00
2022-07-30T14:45:25.514Z,48.60
2022-07-30T14:47:52.349Z,48.60
2022-07-30T14:50:19.204Z,48.50
2022-07-30T14:52:47.468Z,48.70
2022-07-30T14:55:14.342Z,49.30
2022-07-30T14:57:41.082Z,49.90
2022-07-30T15:00:10.865Z,49.60
2022-07-30T15:02:38.109Z,49.10
2022-07-30T15:05:05.186Z,47.10
2022-07-30T15:07:34.546Z,48.40
2022-07-30T15:10:02.491Z,49.10
2022-07-30T15:12:29.262Z,49.30
2022-07-30T15:14:55.971Z,50.50
2022-07-30T15:17:22.663Z,50.20
2022-07-30T15:19:51.197Z,49.60
2022-07-30T15:22:19.639Z,48.90
2022-07-30T15:24:46.492Z,49.00
2022-07-30T15:27:13.168Z,49.70
2022-07-30T15:29:39.896Z,50.00
2022-07-30T15:32:07.198Z,50.70
2022-07-30T15:34:34.511Z,50.30
2022-07-30T15:37:02.602Z,51.30
2022-07-30T15:39:32.212Z,50.50
2022-07-30T15:42:00.658Z,49.60
2022-07-30T15:44:27.721Z,51.80
2022-07-30T15:46:54.938Z,50.50
2022-07-30T15:49:22.010Z,52.00
2022-07-30T15:51:49.040Z,51.40
2022-07-30T15:54:22.844Z,51.20
2022-07-30T15:56:51.230Z,50.10
2022-07-30T15:59:18.286Z,49.80
2022-07-30T16:01:45.451Z,49.50
2022-07-30T16:04:18.922Z,47.70
2022-07-30T16:06:47.830Z,48.60
2022-07-30T16:09:15.446Z,48.40
2022-07-30T16:11:43.013Z,48.20
2022-07-30T16:14:10.375Z,49.10
2022-07-30T16:16:37.430Z,49.20
2022-07-30T16:19:04.422Z,48.50
2022-07-30T16:21:31.311Z,48.20
2022-07-30T16:23:58.079Z,47.20
2022-07-30T16:26:24.754Z,48.20
2022-07-30T16:28:51.419Z,45.80
2022-07-30T16:31:18.263Z,46.90
2022-07-30T16:33:45.011Z,45.60
2022-07-30T16:36:11.797Z,46.40
2022-07-30T16:38:38.486Z,45.40
2022-07-30T16:41:05.278Z,46.60
2022-07-30T16:43:33.081Z,45.70
2022-07-30T16:46:00.131Z,46.80
2022-07-30T16:48:27.106Z,45.40
2022-07-30T16:50:54.707Z,46.40
2022-07-30T16:53:21.468Z,48.10
2022-07-30T16:55:48.234Z,48.00
2022-07-30T16:58:14.935Z,46.70
2022-07-30T17:00:41.749Z,47.50
2022-07-30T17:03:08.674Z,47.60
2022-07-30T17:05:35.767Z,47.90
2022-07-30T17:08:05.459Z,47.80
2022-07-30T17:10:32.239Z,49.70
2022-07-30T17:12:58.901Z,51.10
2022-07-30T17:15:32.852Z,51.30
2022-07-30T17:18:00.927Z,50.60
2022-07-30T17:20:29.046Z,50.60
2022-07-30T17:22:56.193Z,51.70
2022-07-30T17:25:27.479Z,50.90
2022-07-30T17:27:58.557Z,52.40
2022-07-30T17:30:27.473Z,54.50
2022-07-30T17:32:54.235Z,55.40
2022-07-30T17:35:21.076Z,54.70
2022-07-30T17:37:47.980Z,53.80
2022-07-30T17:40:28.678Z,53.40
2022-07-30T17:43:03.601Z,54.60
2022-07-30T17:45:32.531Z,54.80
2022-07-30T17:48:01.327Z,56.20
2022-07-30T17:50:28.753Z,54.80
2022-07-30T17:52:55.427Z,56.80
2022-07-30T17:55:22.279Z,56.90
2022-07-30T17:57:48.990Z,56.90
2022-07-30T18:00:16.179Z,55.40
2022-07-30T18:02:42.895Z,55.90
2022-07-30T18:05:10.631Z,56.00
2022-07-30T18:07:37.571Z,56.30
2022-07-30T18:10:04.817Z,57.20
2022-07-30T18:12:31.574Z,56.00
2022-07-30T18:14:59.234Z,56.10
2022-07-30T18:17:25.983Z,54.70
2022-07-30T18:19:53.469Z,56.00
2022-07-30T18:22:29.012Z,54.90
2022-07-30T18:24:56.524Z,55.70
2022-07-30T18:27:23.726Z,57.50
2022-07-30T18:29:50.388Z,58.80
2022-07-30T18:32:17.098Z,58.90
2022-07-30T18:34:43.955Z,56.80
2022-07-30T18:37:10.620Z,58.20
2022-07-30T18:39:37.289Z,58.80
2022-07-30T18:42:04.538Z,59.70
2022-07-30T18:44:31.600Z,59.50
2022-07-30T18:46:58.269Z,60.20
2022-07-30T18:49:40.384Z,59.60
2022-07-30T18:52:07.595Z,59.50
2022-07-30T18:54:35.523Z,59.30
2022-07-30T18:57:02.417Z,59.50
2022-07-30T18:59:29.463Z,60.70
2022-07-30T19:01:56.156Z,61.10
2022-07-30T19:04:22.862Z,60.70
2022-07-30T19:06:49.613Z,60.70
2022-07-30T19:09:17.949Z,60.10
2022-07-30T19:11:46.046Z,61.00
2022-07-30T19:14:14.010Z,62.10
2022-07-30T19:16:41.920Z,61.50
2022-07-30T19:19:08.849Z,61.50
2022-07-30T19:21:35.748Z,62.40
2022-07-30T19:24:02.580Z,62.40
2022-07-30T19:26:29.310Z,62.70
2022-07-30T19:28:56.048Z,63.30
2022-07-30T19:31:22.872Z,63.90
2022-07-30T19:33:49.624Z,63.80
2022-07-30T19:36:20.559Z,64.80
2022-07-30T19:38:48.812Z,64.10
2022-07-30T19:41:16.274Z,64.90
2022-07-30T19:43:43.021Z,65.70
2022-07-30T19:46:24.280Z,65.40
2022-07-30T19:48:51.041Z,65.50
2022-07-30T19:51:20.741Z,66.30
2022-07-30T19:54:04.662Z,66.60
2022-07-30T19:56:37.698Z,67.30
2022-07-30T19:59:14.717Z,67.70
2022-07-30T20:01:42.840Z,67.60
2022-07-30T20:04:11.112Z,68.10
2022-07-30T20:06:39.888Z,68.00
2022-07-30T20:09:15.082Z,69.30
2022-07-30T20:11:43.620Z,69.70
2022-07-30T20:14:10.490Z,70.30
2022-07-30T20:16:37.434Z,70.60
2022-07-30T20:19:04.722Z,70.10
2022-07-30T20:21:57.088Z,69.40
2022-07-30T20:24:20.207Z,70.90
2022-07-30T20:26:47.689Z,72.60
2022-07-30T20:29:19.458Z,72.00
2022-07-30T20:31:49.976Z,73.10
2022-07-30T20:34:20.614Z,73.40
2022-07-30T20:36:50.757Z,73.20
2022-07-30T20:39:18.638Z,74.70
2022-07-30T20:41:46.630Z,78.20
2022-07-30T20:44:23.025Z,81.60
2022-07-30T20:46:50.735Z,80.10
2022-07-30T20:49:23.645Z,81.20
2022-07-30T20:51:55.700Z,83.00
2022-07-30T20:54:22.435Z,86.50
2022-07-30T20:56:51.066Z,84.70
2022-07-30T20:59:18.220Z,79.40
2022-07-30T21:01:50.455Z,79.10
2022-07-30T21:04:25.552Z,80.30
2022-07-30T21:06:52.971Z,82.50
2022-07-30T21:09:20.302Z,88.00
2022-07-30T21:11:50.604Z,90.60
2022-07-30T21:14:18.693Z,91.30
2022-07-30T21:16:46.651Z,90.20
2022-07-30T21:19:17.534Z,91.80
2022-07-30T21:21:48.272Z,93.40
2022-07-30T21:24:18.690Z,94.70
2022-07-30T21:26:48.778Z,95.00
2022-07-30T21:29:16.759Z,94.40
2022-07-30T21:32:08.739Z,93.90
2022-07-30T21:34:35.915Z,93.80
2022-07-30T21:37:07.382Z,94.20
2022-07-30T21:39:39.952Z,94.60
2022-07-30T21:42:09.796Z,95.10
2022-07-30T21:44:38.083Z,95.00
2022-07-30T21:47:09.976Z,95.60
2022-07-30T21:49:37.631Z,97.80
2022-07-30T21:52:05.120Z,98.10
2022-07-30T21:54:44.996Z,98.20
2022-07-30T21:57:12.519Z,99.30
2022-07-30T21:59:40.455Z,99.90
2022-07-30T22:02:15.977Z,99.90
2022-07-30T22:04:47.620Z,99.90
2022-07-30T22:07:17.590Z,99.90
2022-07-30T22:09:45.122Z,99.90
2022-07-30T22:14:59.188Z,99.90
2022-07-30T22:17:37.233Z,99.90
2022-07-30T22:20:14.682Z,99.90
2022-07-30T22:22:41.353Z,99.90
2022-07-30T22:25:09.849Z,99.90
2022-07-30T22:27:56.426Z,99.90
2022-07-30T22:30:27.032Z,99.90
2022-07-30T22:32:54.920Z,99.90
2022-07-30T22:35:32.194Z,99.90
2022-07-30T22:38:01.497Z,99.90
2022-07-30T22:40:28.188Z,99.90
2022-07-30T22:42:54.867Z,99.90
2022-07-30T22:45:35.969Z,99.90
2022-07-30T22:48:10.734Z,99.90
2022-07-30T22:50:40.294Z,99.90
2022-07-30T22:54:03.680Z,99.90
2022-07-30T22:55:54.946Z,99.90
2022-07-30T22:58:22.168Z,99.90
2022-07-30T23:00:53.130Z,99.90
2022-07-30T23:03:20.121Z,99.90
2022-07-30T23:05:55.913Z,99.90
2022-07-30T23:08:29.596Z,99.90
2022-07-30T23:10:57.646Z,99.90
2022-07-30T23:12:31.543Z,99.90
2022-07-30T23:13:24.298Z,99.90
2022-07-30T23:15:50.989Z,99.90
2022-07-30T23:18:17.647Z,99.90
2022-07-30T23:20:44.361Z,99.90
2022-07-30T23:23:11.523Z,99.90
2022-07-30T23:25:39.368Z,99.90
2022-07-30T23:28:06.521Z,99.90
2022-07-30T23:30:34.431Z,99.90
2022-07-30T23:33:01.642Z,99.90
2022-07-30T23:35:28.308Z,99.90
2022-07-30T23:37:54.984Z,99.90
2022-07-30T23:40:22.414Z,99.90
2022-07-30T23:42:50.828Z,99.90
2022-07-30T23:45:18.408Z,99.90
2022-07-30T23:48:00.487Z,99.90
2022-07-30T23:50:31.468Z,99.90
2022-07-30T23:52:58.551Z,99.90
2022-07-30T23:55:25.263Z,99.90
2022-07-30T23:57:51.936Z,99.90
